sensor_id;sensor_type;location;lat;lon;timestamp;P1;durP1;ratioP1;P2;durP2;ratioP2
50681;SDS011;36779;52.168;20.878;2023-03-02T00:01:38;81.70;;;27.50;;
50681;SDS011;36779;52.168;20.878;2023-03-02T00:04:31;84.10;;;27.30;;
50681;SDS011;36779;52.168;20.878;2023-03-02T00:07:26;76.00;;;27.20;;
50681;SDS011;36779;52.168;20.878;2023-03-02T00:10:18;69.50;;;26.30;;
50681;SDS011;36779;52.168;20.878;2023-03-02T00:13:16;79.10;;;26.70;;
50681;SDS011;36779;52.168;20.878;2023-03-02T00:16:07;80.30;;;25.50;;
50681;SDS011;36779;52.168;20.878;2023-03-02T00:18:57;76.90;;;26.20;;
50681;SDS011;36779;52.168;20.878;2023-03-02T00:21:45;73.60;;;26.30;;
50681;SDS011;36779;52.168;20.878;2023-03-02T00:24:35;59.80;;;21.70;;
50681;SDS011;36779;52.168;20.878;2023-03-02T00:27:30;73.80;;;25.40;;
50681;SDS011;36779;52.168;20.878;2023-03-02T00:33:08;80.50;;;26.50;;
50681;SDS011;36779;52.168;20.878;2023-03-02T00:35:40;78.60;;;26.10;;
50681;SDS011;36779;52.168;20.878;2023-03-02T00:38:21;75.00;;;25.90;;
50681;SDS011;36779;52.168;20.878;2023-03-02T00:41:11;78.30;;;27.40;;
50681;SDS011;36779;52.168;20.878;2023-03-02T00:44:02;79.90;;;26.80;;
50681;SDS011;36779;52.168;20.878;2023-03-02T00:46:51;74.00;;;25.20;;
50681;SDS011;36779;52.168;20.878;2023-03-02T00:52:29;78.80;;;25.10;;
50681;SDS011;36779;52.168;20.878;2023-03-02T00:55:01;65.00;;;23.40;;
50681;SDS011;36779;52.168;20.878;2023-03-02T00:57:53;74.80;;;25.90;;
50681;SDS011;36779;52.168;20.878;2023-03-02T01:00:43;75.50;;;25.00;;
50681;SDS011;36779;52.168;20.878;2023-03-02T01:03:12;64.40;;;23.90;;
50681;SDS011;36779;52.168;20.878;2023-03-02T01:06:04;53.10;;;19.50;;
50681;SDS011;36779;52.168;20.878;2023-03-02T01:08:59;70.80;;;24.70;;
50681;SDS011;36779;52.168;20.878;2023-03-02T01:11:49;74.10;;;23.60;;
50681;SDS011;36779;52.168;20.878;2023-03-02T01:17:29;47.20;;;18.40;;
50681;SDS011;36779;52.168;20.878;2023-03-02T01:20:18;62.90;;;21.00;;
50681;SDS011;36779;52.168;20.878;2023-03-02T01:23:08;72.50;;;25.00;;
50681;SDS011;36779;52.168;20.878;2023-03-02T01:25:57;79.60;;;25.50;;
50681;SDS011;36779;52.168;20.878;2023-03-02T01:28:26;78.20;;;26.90;;
50681;SDS011;36779;52.168;20.878;2023-03-02T01:34:04;80.00;;;27.10;;
50681;SDS011;36779;52.168;20.878;2023-03-02T01:36:54;78.90;;;27.30;;
50681;SDS011;36779;52.168;20.878;2023-03-02T01:42:22;81.00;;;27.30;;
50681;SDS011;36779;52.168;20.878;2023-03-02T01:48:19;80.60;;;26.70;;
50681;SDS011;36779;52.168;20.878;2023-03-02T01:51:15;81.40;;;25.10;;
50681;SDS011;36779;52.168;20.878;2023-03-02T01:54:07;75.60;;;26.00;;
50681;SDS011;36779;52.168;20.878;2023-03-02T01:57:09;77.00;;;24.80;;
50681;SDS011;36779;52.168;20.878;2023-03-02T02:00:01;75.50;;;25.50;;
50681;SDS011;36779;52.168;20.878;2023-03-02T02:02:52;77.80;;;25.20;;
50681;SDS011;36779;52.168;20.878;2023-03-02T02:05:57;67.80;;;23.00;;
50681;SDS011;36779;52.168;20.878;2023-03-02T02:08:53;58.10;;;21.70;;
50681;SDS011;36779;52.168;20.878;2023-03-02T02:11:45;75.80;;;25.20;;
50681;SDS011;36779;52.168;20.878;2023-03-02T02:14:34;76.10;;;26.80;;
50681;SDS011;36779;52.168;20.878;2023-03-02T02:17:23;83.80;;;28.80;;
50681;SDS011;36779;52.168;20.878;2023-03-02T02:20:17;95.60;;;31.30;;
50681;SDS011;36779;52.168;20.878;2023-03-02T02:23:16;96.90;;;30.20;;
50681;SDS011;36779;52.168;20.878;2023-03-02T02:26:06;63.30;;;18.40;;
50681;SDS011;36779;52.168;20.878;2023-03-02T02:28:54;75.60;;;26.80;;
50681;SDS011;36779;52.168;20.878;2023-03-02T02:31:47;88.60;;;25.60;;
50681;SDS011;36779;52.168;20.878;2023-03-02T02:34:41;76.40;;;25.30;;
50681;SDS011;36779;52.168;20.878;2023-03-02T02:37:37;73.20;;;22.90;;
50681;SDS011;36779;52.168;20.878;2023-03-02T02:40:14;67.10;;;22.60;;
50681;SDS011;36779;52.168;20.878;2023-03-02T02:43:19;73.70;;;21.30;;
50681;SDS011;36779;52.168;20.878;2023-03-02T02:46:10;70.40;;;18.70;;
50681;SDS011;36779;52.168;20.878;2023-03-02T02:49:00;65.40;;;18.70;;
50681;SDS011;36779;52.168;20.878;2023-03-02T02:51:53;55.00;;;15.40;;
50681;SDS011;36779;52.168;20.878;2023-03-02T02:54:43;55.50;;;16.50;;
50681;SDS011;36779;52.168;20.878;2023-03-02T02:57:34;55.50;;;17.20;;
50681;SDS011;36779;52.168;20.878;2023-03-02T03:00:24;65.30;;;17.50;;
50681;SDS011;36779;52.168;20.878;2023-03-02T03:03:18;62.80;;;16.80;;
50681;SDS011;36779;52.168;20.878;2023-03-02T03:06:26;57.10;;;17.40;;
50681;SDS011;36779;52.168;20.878;2023-03-02T03:09:30;51.40;;;16.20;;
50681;SDS011;36779;52.168;20.878;2023-03-02T03:12:21;48.10;;;14.70;;
50681;SDS011;36779;52.168;20.878;2023-03-02T03:15:05;50.80;;;16.00;;
50681;SDS011;36779;52.168;20.878;2023-03-02T03:17:56;51.30;;;15.40;;
50681;SDS011;36779;52.168;20.878;2023-03-02T03:20:46;50.40;;;15.00;;
50681;SDS011;36779;52.168;20.878;2023-03-02T03:23:35;54.50;;;16.20;;
50681;SDS011;36779;52.168;20.878;2023-03-02T03:26:25;52.80;;;15.70;;
50681;SDS011;36779;52.168;20.878;2023-03-02T03:29:14;51.90;;;15.00;;
50681;SDS011;36779;52.168;20.878;2023-03-02T03:32:05;49.50;;;15.20;;
50681;SDS011;36779;52.168;20.878;2023-03-02T03:34:54;53.40;;;15.60;;
50681;SDS011;36779;52.168;20.878;2023-03-02T03:37:46;50.20;;;15.30;;
50681;SDS011;36779;52.168;20.878;2023-03-02T03:40:36;47.60;;;13.80;;
50681;SDS011;36779;52.168;20.878;2023-03-02T03:43:25;48.10;;;14.80;;
50681;SDS011;36779;52.168;20.878;2023-03-02T03:46:14;46.40;;;13.90;;
50681;SDS011;36779;52.168;20.878;2023-03-02T03:49:04;55.80;;;15.10;;
50681;SDS011;36779;52.168;20.878;2023-03-02T03:51:53;53.80;;;14.40;;
50681;SDS011;36779;52.168;20.878;2023-03-02T03:54:43;50.90;;;15.30;;
50681;SDS011;36779;52.168;20.878;2023-03-02T03:57:12;46.90;;;13.70;;
50681;SDS011;36779;52.168;20.878;2023-03-02T04:02:54;50.50;;;14.50;;
50681;SDS011;36779;52.168;20.878;2023-03-02T04:05:44;52.40;;;14.10;;
50681;SDS011;36779;52.168;20.878;2023-03-02T04:08:26;54.30;;;15.50;;
50681;SDS011;36779;52.168;20.878;2023-03-02T04:11:15;44.50;;;14.60;;
50681;SDS011;36779;52.168;20.878;2023-03-02T04:14:05;40.90;;;13.10;;
50681;SDS011;36779;52.168;20.878;2023-03-02T04:16:55;40.50;;;12.70;;
50681;SDS011;36779;52.168;20.878;2023-03-02T04:19:45;46.30;;;13.70;;
50681;SDS011;36779;52.168;20.878;2023-03-02T04:22:34;47.70;;;14.80;;
50681;SDS011;36779;52.168;20.878;2023-03-02T04:25:24;55.80;;;16.00;;
50681;SDS011;36779;52.168;20.878;2023-03-02T04:28:17;53.30;;;15.50;;
50681;SDS011;36779;52.168;20.878;2023-03-02T04:31:06;49.20;;;15.90;;
50681;SDS011;36779;52.168;20.878;2023-03-02T04:33:55;55.00;;;15.60;;
50681;SDS011;36779;52.168;20.878;2023-03-02T04:36:44;47.30;;;14.60;;
50681;SDS011;36779;52.168;20.878;2023-03-02T04:39:34;50.80;;;15.60;;
50681;SDS011;36779;52.168;20.878;2023-03-02T04:45:12;52.70;;;15.10;;
50681;SDS011;36779;52.168;20.878;2023-03-02T04:48:03;52.80;;;15.30;;
50681;SDS011;36779;52.168;20.878;2023-03-02T04:50:53;53.30;;;17.10;;
50681;SDS011;36779;52.168;20.878;2023-03-02T04:53:42;53.60;;;15.60;;
50681;SDS011;36779;52.168;20.878;2023-03-02T04:59:23;56.80;;;15.60;;
50681;SDS011;36779;52.168;20.878;2023-03-02T05:02:13;54.30;;;16.10;;
50681;SDS011;36779;52.168;20.878;2023-03-02T05:05:04;48.40;;;14.80;;
50681;SDS011;36779;52.168;20.878;2023-03-02T05:07:54;53.50;;;16.30;;
50681;SDS011;36779;52.168;20.878;2023-03-02T05:10:45;62.50;;;17.40;;
50681;SDS011;36779;52.168;20.878;2023-03-02T05:13:35;62.50;;;17.00;;
50681;SDS011;36779;52.168;20.878;2023-03-02T05:16:25;55.60;;;16.60;;
50681;SDS011;36779;52.168;20.878;2023-03-02T05:19:20;57.20;;;16.80;;
50681;SDS011;36779;52.168;20.878;2023-03-02T05:22:10;56.20;;;16.30;;
50681;SDS011;36779;52.168;20.878;2023-03-02T05:25:07;60.20;;;17.50;;
50681;SDS011;36779;52.168;20.878;2023-03-02T05:27:56;58.90;;;19.00;;
50681;SDS011;36779;52.168;20.878;2023-03-02T05:30:47;65.30;;;20.50;;
50681;SDS011;36779;52.168;20.878;2023-03-02T05:33:38;83.80;;;24.40;;
50681;SDS011;36779;52.168;20.878;2023-03-02T05:36:28;72.40;;;20.30;;
50681;SDS011;36779;52.168;20.878;2023-03-02T05:39:17;56.80;;;18.80;;
50681;SDS011;36779;52.168;20.878;2023-03-02T05:42:06;62.00;;;20.30;;
50681;SDS011;36779;52.168;20.878;2023-03-02T05:44:57;63.50;;;19.40;;
50681;SDS011;36779;52.168;20.878;2023-03-02T05:47:47;66.40;;;19.30;;
50681;SDS011;36779;52.168;20.878;2023-03-02T05:50:37;66.80;;;18.10;;
50681;SDS011;36779;52.168;20.878;2023-03-02T05:53:31;64.60;;;18.30;;
50681;SDS011;36779;52.168;20.878;2023-03-02T05:56:20;65.60;;;18.60;;
50681;SDS011;36779;52.168;20.878;2023-03-02T05:59:10;61.80;;;17.80;;
50681;SDS011;36779;52.168;20.878;2023-03-02T06:01:59;68.40;;;20.10;;
50681;SDS011;36779;52.168;20.878;2023-03-02T06:04:50;66.20;;;19.70;;
50681;SDS011;36779;52.168;20.878;2023-03-02T06:07:39;62.50;;;19.10;;
50681;SDS011;36779;52.168;20.878;2023-03-02T06:10:29;63.10;;;18.70;;
50681;SDS011;36779;52.168;20.878;2023-03-02T06:13:19;62.30;;;18.40;;
50681;SDS011;36779;52.168;20.878;2023-03-02T06:16:08;71.00;;;19.10;;
50681;SDS011;36779;52.168;20.878;2023-03-02T06:18:58;68.50;;;18.80;;
50681;SDS011;36779;52.168;20.878;2023-03-02T06:21:50;91.80;;;22.00;;
50681;SDS011;36779;52.168;20.878;2023-03-02T06:24:39;63.50;;;20.50;;
50681;SDS011;36779;52.168;20.878;2023-03-02T06:27:29;58.50;;;19.80;;
50681;SDS011;36779;52.168;20.878;2023-03-02T06:30:20;79.60;;;24.40;;
50681;SDS011;36779;52.168;20.878;2023-03-02T06:33:14;77.60;;;23.80;;
50681;SDS011;36779;52.168;20.878;2023-03-02T06:36:07;66.00;;;19.50;;
50681;SDS011;36779;52.168;20.878;2023-03-02T06:38:59;60.40;;;19.00;;
50681;SDS011;36779;52.168;20.878;2023-03-02T06:41:48;60.50;;;19.20;;
50681;SDS011;36779;52.168;20.878;2023-03-02T06:44:38;62.60;;;18.90;;
50681;SDS011;36779;52.168;20.878;2023-03-02T06:47:29;62.30;;;19.60;;
50681;SDS011;36779;52.168;20.878;2023-03-02T06:50:20;65.40;;;17.70;;
50681;SDS011;36779;52.168;20.878;2023-03-02T06:53:09;67.70;;;20.20;;
50681;SDS011;36779;52.168;20.878;2023-03-02T06:55:59;72.90;;;19.90;;
50681;SDS011;36779;52.168;20.878;2023-03-02T07:01:37;76.40;;;21.50;;
50681;SDS011;36779;52.168;20.878;2023-03-02T07:04:26;63.90;;;20.90;;
50681;SDS011;36779;52.168;20.878;2023-03-02T07:10:05;81.00;;;20.00;;
50681;SDS011;36779;52.168;20.878;2023-03-02T07:12:58;74.40;;;20.70;;
50681;SDS011;36779;52.168;20.878;2023-03-02T07:15:48;72.20;;;20.40;;
50681;SDS011;36779;52.168;20.878;2023-03-02T07:18:38;68.50;;;19.00;;
50681;SDS011;36779;52.168;20.878;2023-03-02T07:21:28;69.00;;;19.70;;
50681;SDS011;36779;52.168;20.878;2023-03-02T07:24:19;70.80;;;20.00;;
50681;SDS011;36779;52.168;20.878;2023-03-02T07:27:09;64.50;;;20.40;;
50681;SDS011;36779;52.168;20.878;2023-03-02T07:29:59;87.00;;;22.70;;
50681;SDS011;36779;52.168;20.878;2023-03-02T07:32:51;67.90;;;21.20;;
50681;SDS011;36779;52.168;20.878;2023-03-02T07:35:40;65.10;;;21.20;;
50681;SDS011;36779;52.168;20.878;2023-03-02T07:38:31;76.10;;;21.50;;
50681;SDS011;36779;52.168;20.878;2023-03-02T07:41:20;67.10;;;22.40;;
50681;SDS011;36779;52.168;20.878;2023-03-02T07:44:09;71.70;;;23.00;;
50681;SDS011;36779;52.168;20.878;2023-03-02T07:46:59;70.90;;;23.90;;
50681;SDS011;36779;52.168;20.878;2023-03-02T07:49:48;73.20;;;22.50;;
50681;SDS011;36779;52.168;20.878;2023-03-02T07:52:37;66.50;;;24.40;;
50681;SDS011;36779;52.168;20.878;2023-03-02T07:55:27;66.90;;;24.80;;
50681;SDS011;36779;52.168;20.878;2023-03-02T07:58:16;64.60;;;24.00;;
50681;SDS011;36779;52.168;20.878;2023-03-02T08:03:56;74.50;;;24.20;;
50681;SDS011;36779;52.168;20.878;2023-03-02T08:06:45;75.20;;;24.40;;
50681;SDS011;36779;52.168;20.878;2023-03-02T08:09:34;72.40;;;24.50;;
50681;SDS011;36779;52.168;20.878;2023-03-02T08:12:27;73.80;;;25.10;;
50681;SDS011;36779;52.168;20.878;2023-03-02T08:15:17;81.40;;;26.40;;
50681;SDS011;36779;52.168;20.878;2023-03-02T08:18:06;83.20;;;27.50;;
50681;SDS011;36779;52.168;20.878;2023-03-02T08:20:57;73.70;;;25.80;;
50681;SDS011;36779;52.168;20.878;2023-03-02T08:23:46;68.30;;;22.10;;
50681;SDS011;36779;52.168;20.878;2023-03-02T08:26:36;74.60;;;24.20;;
50681;SDS011;36779;52.168;20.878;2023-03-02T08:29:26;72.70;;;24.30;;
50681;SDS011;36779;52.168;20.878;2023-03-02T08:32:16;75.60;;;23.70;;
50681;SDS011;36779;52.168;20.878;2023-03-02T08:35:08;71.90;;;25.10;;
50681;SDS011;36779;52.168;20.878;2023-03-02T08:37:59;65.50;;;24.70;;
50681;SDS011;36779;52.168;20.878;2023-03-02T08:40:48;71.40;;;23.80;;
50681;SDS011;36779;52.168;20.878;2023-03-02T08:43:38;70.70;;;25.50;;
50681;SDS011;36779;52.168;20.878;2023-03-02T08:46:29;63.20;;;22.90;;
50681;SDS011;36779;52.168;20.878;2023-03-02T08:49:19;66.60;;;21.90;;
50681;SDS011;36779;52.168;20.878;2023-03-02T08:52:08;67.70;;;24.60;;
50681;SDS011;36779;52.168;20.878;2023-03-02T08:54:57;57.80;;;21.40;;
50681;SDS011;36779;52.168;20.878;2023-03-02T08:57:51;63.30;;;22.00;;
50681;SDS011;36779;52.168;20.878;2023-03-02T09:00:41;57.00;;;20.60;;
50681;SDS011;36779;52.168;20.878;2023-03-02T09:03:34;55.40;;;17.70;;
50681;SDS011;36779;52.168;20.878;2023-03-02T09:06:23;58.40;;;22.50;;
50681;SDS011;36779;52.168;20.878;2023-03-02T09:09:14;61.00;;;22.10;;
50681;SDS011;36779;52.168;20.878;2023-03-02T09:12:04;61.90;;;21.00;;
50681;SDS011;36779;52.168;20.878;2023-03-02T09:14:54;53.40;;;18.00;;
50681;SDS011;36779;52.168;20.878;2023-03-02T09:17:44;47.50;;;16.60;;
50681;SDS011;36779;52.168;20.878;2023-03-02T09:20:33;45.90;;;15.50;;
50681;SDS011;36779;52.168;20.878;2023-03-02T09:23:23;42.60;;;14.80;;
50681;SDS011;36779;52.168;20.878;2023-03-02T09:26:13;47.20;;;17.10;;
50681;SDS011;36779;52.168;20.878;2023-03-02T09:29:04;51.80;;;18.00;;
50681;SDS011;36779;52.168;20.878;2023-03-02T09:31:54;42.80;;;17.10;;
50681;SDS011;36779;52.168;20.878;2023-03-02T09:34:43;39.00;;;14.20;;
50681;SDS011;36779;52.168;20.878;2023-03-02T09:37:32;28.00;;;9.10;;
50681;SDS011;36779;52.168;20.878;2023-03-02T09:40:24;28.00;;;9.60;;
50681;SDS011;36779;52.168;20.878;2023-03-02T09:43:17;20.70;;;7.90;;
50681;SDS011;36779;52.168;20.878;2023-03-02T09:46:16;19.30;;;8.00;;
50681;SDS011;36779;52.168;20.878;2023-03-02T09:49:14;24.00;;;9.20;;
50681;SDS011;36779;52.168;20.878;2023-03-02T09:52:26;21.10;;;7.30;;
50681;SDS011;36779;52.168;20.878;2023-03-02T09:55:27;22.20;;;7.90;;
50681;SDS011;36779;52.168;20.878;2023-03-02T09:58:22;12.30;;;4.90;;
50681;SDS011;36779;52.168;20.878;2023-03-02T10:01:16;15.70;;;5.10;;
50681;SDS011;36779;52.168;20.878;2023-03-02T10:04:20;11.80;;;5.60;;
50681;SDS011;36779;52.168;20.878;2023-03-02T10:07:13;16.40;;;6.50;;
50681;SDS011;36779;52.168;20.878;2023-03-02T10:10:08;18.30;;;7.40;;
50681;SDS011;36779;52.168;20.878;2023-03-02T10:13:12;17.90;;;7.10;;
50681;SDS011;36779;52.168;20.878;2023-03-02T10:16:11;19.40;;;7.20;;
50681;SDS011;36779;52.168;20.878;2023-03-02T10:19:07;10.90;;;4.50;;
50681;SDS011;36779;52.168;20.878;2023-03-02T10:22:03;9.50;;;4.20;;
50681;SDS011;36779;52.168;20.878;2023-03-02T10:25:06;12.10;;;4.80;;
50681;SDS011;36779;52.168;20.878;2023-03-02T10:28:10;14.60;;;4.20;;
50681;SDS011;36779;52.168;20.878;2023-03-02T10:31:07;7.90;;;3.80;;
50681;SDS011;36779;52.168;20.878;2023-03-02T10:33:58;10.30;;;3.60;;
50681;SDS011;36779;52.168;20.878;2023-03-02T10:36:48;7.20;;;3.40;;
50681;SDS011;36779;52.168;20.878;2023-03-02T10:39:37;7.40;;;2.60;;
50681;SDS011;36779;52.168;20.878;2023-03-02T10:42:18;7.50;;;2.80;;
50681;SDS011;36779;52.168;20.878;2023-03-02T10:45:01;6.80;;;3.30;;
50681;SDS011;36779;52.168;20.878;2023-03-02T10:47:46;8.10;;;3.20;;
50681;SDS011;36779;52.168;20.878;2023-03-02T10:50:51;9.60;;;3.90;;
50681;SDS011;36779;52.168;20.878;2023-03-02T10:53:40;9.20;;;3.90;;
50681;SDS011;36779;52.168;20.878;2023-03-02T10:56:30;5.70;;;2.30;;
50681;SDS011;36779;52.168;20.878;2023-03-02T11:02:32;8.90;;;3.20;;
50681;SDS011;36779;52.168;20.878;2023-03-02T11:05:26;8.30;;;3.10;;
50681;SDS011;36779;52.168;20.878;2023-03-02T11:08:19;5.80;;;2.40;;
50681;SDS011;36779;52.168;20.878;2023-03-02T11:11:18;6.70;;;3.10;;
50681;SDS011;36779;52.168;20.878;2023-03-02T11:14:12;7.90;;;3.40;;
50681;SDS011;36779;52.168;20.878;2023-03-02T11:17:13;7.70;;;3.50;;
50681;SDS011;36779;52.168;20.878;2023-03-02T11:20:18;25.30;;;8.20;;
50681;SDS011;36779;52.168;20.878;2023-03-02T11:23:14;7.80;;;2.80;;
50681;SDS011;36779;52.168;20.878;2023-03-02T11:26:12;7.50;;;2.90;;
50681;SDS011;36779;52.168;20.878;2023-03-02T11:29:10;6.80;;;2.80;;
50681;SDS011;36779;52.168;20.878;2023-03-02T11:32:12;6.50;;;2.90;;
50681;SDS011;36779;52.168;20.878;2023-03-02T11:35:08;7.20;;;3.50;;
50681;SDS011;36779;52.168;20.878;2023-03-02T11:38:03;9.50;;;3.40;;
50681;SDS011;36779;52.168;20.878;2023-03-02T11:41:02;7.00;;;3.00;;
50681;SDS011;36779;52.168;20.878;2023-03-02T11:43:59;7.00;;;2.50;;
50681;SDS011;36779;52.168;20.878;2023-03-02T11:46:59;5.40;;;2.20;;
50681;SDS011;36779;52.168;20.878;2023-03-02T11:50:10;9.50;;;3.00;;
50681;SDS011;36779;52.168;20.878;2023-03-02T11:53:05;10.40;;;4.10;;
50681;SDS011;36779;52.168;20.878;2023-03-02T11:56:01;8.20;;;3.30;;
50681;SDS011;36779;52.168;20.878;2023-03-02T11:58:53;8.80;;;3.70;;
50681;SDS011;36779;52.168;20.878;2023-03-02T12:01:45;9.80;;;4.20;;
50681;SDS011;36779;52.168;20.878;2023-03-02T12:04:38;9.40;;;3.90;;
50681;SDS011;36779;52.168;20.878;2023-03-02T12:07:28;14.00;;;4.80;;
50681;SDS011;36779;52.168;20.878;2023-03-02T12:10:23;11.60;;;4.30;;
50681;SDS011;36779;52.168;20.878;2023-03-02T12:13:19;8.40;;;3.60;;
50681;SDS011;36779;52.168;20.878;2023-03-02T12:16:18;11.70;;;4.20;;
50681;SDS011;36779;52.168;20.878;2023-03-02T12:19:12;9.40;;;4.10;;
50681;SDS011;36779;52.168;20.878;2023-03-02T12:22:12;10.70;;;3.80;;
50681;SDS011;36779;52.168;20.878;2023-03-02T12:25:25;12.70;;;3.70;;
50681;SDS011;36779;52.168;20.878;2023-03-02T12:28:25;11.50;;;4.40;;
50681;SDS011;36779;52.168;20.878;2023-03-02T12:31:17;9.40;;;3.20;;
50681;SDS011;36779;52.168;20.878;2023-03-02T12:37:13;9.10;;;3.60;;
50681;SDS011;36779;52.168;20.878;2023-03-02T12:40:16;10.00;;;4.00;;
50681;SDS011;36779;52.168;20.878;2023-03-02T12:43:26;10.70;;;4.40;;
50681;SDS011;36779;52.168;20.878;2023-03-02T12:46:29;11.00;;;4.30;;
50681;SDS011;36779;52.168;20.878;2023-03-02T12:49:25;9.70;;;4.40;;
50681;SDS011;36779;52.168;20.878;2023-03-02T12:52:31;6.60;;;3.40;;
50681;SDS011;36779;52.168;20.878;2023-03-02T12:55:22;9.90;;;3.90;;
50681;SDS011;36779;52.168;20.878;2023-03-02T12:58:15;9.40;;;3.50;;
50681;SDS011;36779;52.168;20.878;2023-03-02T13:01:05;12.40;;;5.20;;
50681;SDS011;36779;52.168;20.878;2023-03-02T13:04:17;11.20;;;4.30;;
50681;SDS011;36779;52.168;20.878;2023-03-02T13:07:14;9.40;;;3.70;;
50681;SDS011;36779;52.168;20.878;2023-03-02T13:09:58;10.70;;;4.50;;
50681;SDS011;36779;52.168;20.878;2023-03-02T13:12:53;11.10;;;4.50;;
50681;SDS011;36779;52.168;20.878;2023-03-02T13:15:47;10.90;;;3.80;;
50681;SDS011;36779;52.168;20.878;2023-03-02T13:18:23;12.90;;;5.90;;
50681;SDS011;36779;52.168;20.878;2023-03-02T13:21:15;8.50;;;3.20;;
50681;SDS011;36779;52.168;20.878;2023-03-02T13:24:23;9.10;;;3.70;;
50681;SDS011;36779;52.168;20.878;2023-03-02T13:27:13;9.90;;;4.60;;
50681;SDS011;36779;52.168;20.878;2023-03-02T13:30:09;12.60;;;5.10;;
50681;SDS011;36779;52.168;20.878;2023-03-02T13:33:16;11.70;;;5.40;;
50681;SDS011;36779;52.168;20.878;2023-03-02T13:36:16;15.50;;;5.70;;
50681;SDS011;36779;52.168;20.878;2023-03-02T13:39:06;13.90;;;4.90;;
50681;SDS011;36779;52.168;20.878;2023-03-02T13:45:20;12.80;;;4.70;;
50681;SDS011;36779;52.168;20.878;2023-03-02T13:48:12;10.30;;;3.80;;
50681;SDS011;36779;52.168;20.878;2023-03-02T13:51:02;16.90;;;6.20;;
50681;SDS011;36779;52.168;20.878;2023-03-02T13:54:15;16.00;;;7.20;;
50681;SDS011;36779;52.168;20.878;2023-03-02T13:57:13;10.30;;;5.10;;
50681;SDS011;36779;52.168;20.878;2023-03-02T14:00:09;17.30;;;6.90;;
50681;SDS011;36779;52.168;20.878;2023-03-02T14:03:01;15.40;;;6.50;;
50681;SDS011;36779;52.168;20.878;2023-03-02T14:05:51;18.40;;;7.90;;
50681;SDS011;36779;52.168;20.878;2023-03-02T14:08:41;13.70;;;5.50;;
50681;SDS011;36779;52.168;20.878;2023-03-02T14:11:33;16.60;;;8.30;;
50681;SDS011;36779;52.168;20.878;2023-03-02T14:14:27;18.10;;;6.10;;
50681;SDS011;36779;52.168;20.878;2023-03-02T14:17:22;15.80;;;6.30;;
50681;SDS011;36779;52.168;20.878;2023-03-02T14:20:14;19.30;;;8.30;;
50681;SDS011;36779;52.168;20.878;2023-03-02T14:23:07;29.10;;;9.40;;
50681;SDS011;36779;52.168;20.878;2023-03-02T14:25:56;17.60;;;6.60;;
50681;SDS011;36779;52.168;20.878;2023-03-02T14:28:45;20.60;;;8.10;;
50681;SDS011;36779;52.168;20.878;2023-03-02T14:31:47;20.30;;;7.50;;
50681;SDS011;36779;52.168;20.878;2023-03-02T14:34:36;23.50;;;8.10;;
50681;SDS011;36779;52.168;20.878;2023-03-02T14:37:27;27.20;;;10.00;;
50681;SDS011;36779;52.168;20.878;2023-03-02T14:40:17;21.30;;;8.70;;
50681;SDS011;36779;52.168;20.878;2023-03-02T14:43:11;21.70;;;8.70;;
50681;SDS011;36779;52.168;20.878;2023-03-02T14:46:00;28.40;;;11.30;;
50681;SDS011;36779;52.168;20.878;2023-03-02T14:48:51;26.00;;;9.70;;
50681;SDS011;36779;52.168;20.878;2023-03-02T14:51:40;29.70;;;10.80;;
50681;SDS011;36779;52.168;20.878;2023-03-02T14:54:48;25.70;;;10.10;;
50681;SDS011;36779;52.168;20.878;2023-03-02T14:57:40;19.70;;;7.90;;
50681;SDS011;36779;52.168;20.878;2023-03-02T15:00:31;25.90;;;9.40;;
50681;SDS011;36779;52.168;20.878;2023-03-02T15:03:21;25.60;;;8.90;;
50681;SDS011;36779;52.168;20.878;2023-03-02T15:06:21;29.70;;;11.30;;
50681;SDS011;36779;52.168;20.878;2023-03-02T15:09:26;25.30;;;9.30;;
50681;SDS011;36779;52.168;20.878;2023-03-02T15:12:15;24.30;;;8.50;;
50681;SDS011;36779;52.168;20.878;2023-03-02T15:15:07;21.60;;;8.50;;
50681;SDS011;36779;52.168;20.878;2023-03-02T15:17:57;24.80;;;9.30;;
50681;SDS011;36779;52.168;20.878;2023-03-02T15:20:46;18.80;;;7.80;;
50681;SDS011;36779;52.168;20.878;2023-03-02T15:23:36;22.90;;;7.80;;
50681;SDS011;36779;52.168;20.878;2023-03-02T15:26:26;20.50;;;7.60;;
50681;SDS011;36779;52.168;20.878;2023-03-02T15:29:16;22.50;;;7.60;;
50681;SDS011;36779;52.168;20.878;2023-03-02T15:32:07;21.30;;;7.20;;
50681;SDS011;36779;52.168;20.878;2023-03-02T15:34:57;18.30;;;6.80;;
50681;SDS011;36779;52.168;20.878;2023-03-02T15:37:46;21.60;;;7.00;;
50681;SDS011;36779;52.168;20.878;2023-03-02T15:40:35;21.50;;;7.50;;
50681;SDS011;36779;52.168;20.878;2023-03-02T15:43:27;21.70;;;8.60;;
50681;SDS011;36779;52.168;20.878;2023-03-02T15:46:16;21.80;;;8.50;;
50681;SDS011;36779;52.168;20.878;2023-03-02T15:51:54;18.00;;;7.00;;
50681;SDS011;36779;52.168;20.878;2023-03-02T15:54:44;23.50;;;7.60;;
50681;SDS011;36779;52.168;20.878;2023-03-02T15:57:28;20.10;;;7.50;;
50681;SDS011;36779;52.168;20.878;2023-03-02T16:00:18;24.10;;;8.70;;
50681;SDS011;36779;52.168;20.878;2023-03-02T16:03:03;25.80;;;8.70;;
50681;SDS011;36779;52.168;20.878;2023-03-02T16:05:56;29.00;;;10.10;;
50681;SDS011;36779;52.168;20.878;2023-03-02T16:08:39;22.30;;;9.60;;
50681;SDS011;36779;52.168;20.878;2023-03-02T16:11:29;32.00;;;11.00;;
50681;SDS011;36779;52.168;20.878;2023-03-02T16:17:06;24.50;;;9.20;;
50681;SDS011;36779;52.168;20.878;2023-03-02T16:19:56;26.10;;;9.50;;
50681;SDS011;36779;52.168;20.878;2023-03-02T16:22:45;23.10;;;9.80;;
50681;SDS011;36779;52.168;20.878;2023-03-02T16:25:38;22.30;;;9.10;;
50681;SDS011;36779;52.168;20.878;2023-03-02T16:28:29;21.80;;;9.40;;
50681;SDS011;36779;52.168;20.878;2023-03-02T16:31:18;27.30;;;9.70;;
50681;SDS011;36779;52.168;20.878;2023-03-02T16:34:08;28.50;;;9.20;;
50681;SDS011;36779;52.168;20.878;2023-03-02T16:36:58;24.60;;;9.80;;
50681;SDS011;36779;52.168;20.878;2023-03-02T16:39:48;24.70;;;9.50;;
50681;SDS011;36779;52.168;20.878;2023-03-02T16:42:37;21.20;;;8.40;;
50681;SDS011;36779;52.168;20.878;2023-03-02T16:45:28;37.00;;;13.20;;
50681;SDS011;36779;52.168;20.878;2023-03-02T16:48:18;41.50;;;13.20;;
50681;SDS011;36779;52.168;20.878;2023-03-02T16:51:08;42.60;;;13.60;;
50681;SDS011;36779;52.168;20.878;2023-03-02T16:53:58;49.70;;;15.80;;
50681;SDS011;36779;52.168;20.878;2023-03-02T16:56:47;95.20;;;25.60;;
50681;SDS011;36779;52.168;20.878;2023-03-02T16:59:37;83.00;;;26.90;;
50681;SDS011;36779;52.168;20.878;2023-03-02T17:02:28;108.10;;;30.40;;
50681;SDS011;36779;52.168;20.878;2023-03-02T17:05:20;90.10;;;26.40;;
50681;SDS011;36779;52.168;20.878;2023-03-02T17:08:11;77.60;;;23.90;;
50681;SDS011;36779;52.168;20.878;2023-03-02T17:11:06;83.10;;;23.30;;
50681;SDS011;36779;52.168;20.878;2023-03-02T17:13:57;69.20;;;22.80;;
50681;SDS011;36779;52.168;20.878;2023-03-02T17:16:31;85.80;;;25.00;;
50681;SDS011;36779;52.168;20.878;2023-03-02T17:19:21;86.50;;;25.50;;
50681;SDS011;36779;52.168;20.878;2023-03-02T17:22:13;71.10;;;22.80;;
50681;SDS011;36779;52.168;20.878;2023-03-02T17:25:11;59.30;;;19.60;;
50681;SDS011;36779;52.168;20.878;2023-03-02T17:28:04;50.30;;;17.10;;